createdAt,value
2022-12-09T00:00:15.862Z,8.18
2022-12-09T00:01:15.835Z,8.14
2022-12-09T00:02:15.865Z,8.20
2022-12-09T00:03:20.119Z,8.23
2022-12-09T00:04:16.031Z,8.21
2022-12-09T00:05:15.921Z,8.26
2022-12-09T00:06:15.607Z,8.26
2022-12-09T00:07:15.561Z,8.31
2022-12-09T00:08:15.570Z,8.28
2022-12-09T00:09:15.878Z,8.27
2022-12-09T00:10:15.500Z,8.32
2022-12-09T00:11:15.591Z,8.26
2022-12-09T00:12:15.491Z,8.38
2022-12-09T00:13:15.443Z,8.44
2022-12-09T00:14:15.658Z,8.50
2022-12-09T00:15:15.531Z,8.41
2022-12-09T00:16:15.612Z,8.45
2022-12-09T00:17:15.524Z,8.54
2022-12-09T00:18:15.560Z,8.56
2022-12-09T00:19:15.324Z,8.49
2022-12-09T00:20:15.555Z,8.53
2022-12-09T00:21:15.290Z,8.54
2022-12-09T00:22:15.305Z,8.53
2022-12-09T00:23:15.287Z,8.54
2022-12-09T00:24:15.359Z,8.54
2022-12-09T00:25:15.233Z,8.59
2022-12-09T00:26:15.392Z,8.57
2022-12-09T00:27:15.169Z,8.66
2022-12-09T00:28:15.367Z,8.64
2022-12-09T00:29:15.313Z,8.64
2022-12-09T00:30:15.104Z,8.61
2022-12-09T00:31:15.230Z,8.63
2022-12-09T00:32:15.468Z,8.69
2022-12-09T00:33:15.048Z,8.71
2022-12-09T00:34:15.164Z,8.68
2022-12-09T00:35:15.043Z,8.69
2022-12-09T00:36:15.062Z,8.66
2022-12-09T00:37:15.000Z,8.64
2022-12-09T00:38:14.949Z,8.68
2022-12-09T00:39:14.931Z,8.69
2022-12-09T00:40:14.911Z,8.66
2022-12-09T00:41:15.116Z,8.63
2022-12-09T00:42:14.948Z,8.63
2022-12-09T00:43:14.914Z,8.68
2022-12-09T00:44:14.832Z,8.71
2022-12-09T00:45:14.811Z,8.71
2022-12-09T00:46:15.066Z,8.69
2022-12-09T00:47:14.856Z,8.68
2022-12-09T00:48:14.754Z,8.68
2022-12-09T00:49:14.944Z,8.71
2022-12-09T00:50:14.976Z,8.63
2022-12-09T00:51:14.928Z,8.69
2022-12-09T00:52:14.672Z,8.60
2022-12-09T00:53:14.684Z,8.61
2022-12-09T00:54:15.022Z,8.68
2022-12-09T00:55:14.640Z,8.54
2022-12-09T00:56:14.662Z,8.57
2022-12-09T00:57:14.612Z,8.59
2022-12-09T00:58:14.557Z,8.57
2022-12-09T00:59:14.740Z,8.52
2022-12-09T01:00:14.774Z,8.52
2022-12-09T01:01:14.535Z,8.53
2022-12-09T01:02:14.885Z,8.46
2022-12-09T01:03:14.683Z,8.52
2022-12-09T01:04:14.786Z,8.41
2022-12-09T01:05:14.547Z,8.31
2022-12-09T01:06:14.412Z,8.39
2022-12-09T01:07:14.402Z,8.27
2022-12-09T01:08:14.511Z,8.35
2022-12-09T01:09:14.733Z,8.36
2022-12-09T01:10:14.551Z,8.35
2022-12-09T01:11:14.401Z,8.32
2022-12-09T01:12:14.281Z,8.35
2022-12-09T01:13:14.421Z,8.27
2022-12-09T01:14:14.566Z,8.32
2022-12-09T01:15:14.491Z,8.27
2022-12-09T01:16:14.523Z,8.35
2022-12-09T01:17:14.372Z,8.36
2022-12-09T01:18:14.195Z,8.38
2022-12-09T01:19:14.170Z,8.34
2022-12-09T01:20:14.273Z,8.26
2022-12-09T01:21:14.143Z,8.28
2022-12-09T01:22:14.081Z,8.28
2022-12-09T01:23:14.360Z,8.35
2022-12-09T01:24:14.209Z,8.36
2022-12-09T01:25:14.078Z,8.32
2022-12-09T01:26:14.074Z,8.34
2022-12-09T01:27:14.015Z,8.24
2022-12-09T01:28:13.963Z,8.28
2022-12-09T01:29:14.236Z,8.28
2022-12-09T01:30:13.972Z,8.18
2022-12-09T01:31:14.044Z,8.26
2022-12-09T01:32:13.948Z,8.17
2022-12-09T01:33:13.933Z,8.24
2022-12-09T01:34:13.926Z,8.21
2022-12-09T01:35:13.926Z,8.21
2022-12-09T01:36:13.803Z,8.23
2022-12-09T01:37:13.821Z,8.21
2022-12-09T01:38:13.873Z,8.20
2022-12-09T01:39:13.748Z,8.11
2022-12-09T01:40:13.726Z,8.18
2022-12-09T01:41:13.704Z,8.09
2022-12-09T01:42:13.771Z,8.06
2022-12-09T01:43:13.793Z,8.03
2022-12-09T01:44:13.645Z,8.13
2022-12-09T01:45:13.629Z,8.06
2022-12-09T01:46:13.722Z,8.09
2022-12-09T01:47:13.668Z,8.08
2022-12-09T01:48:13.643Z,8.08
2022-12-09T01:49:13.744Z,8.08
2022-12-09T01:50:13.835Z,8.06
2022-12-09T01:51:13.733Z,8.09
2022-12-09T01:52:13.596Z,8.09
2022-12-09T01:53:13.465Z,8.13
2022-12-09T01:54:13.462Z,8.08
2022-12-09T01:55:13.515Z,8.09
2022-12-09T01:56:13.411Z,8.05
2022-12-09T01:57:13.387Z,8.06
2022-12-09T01:58:13.595Z,8.11
2022-12-09T01:59:13.428Z,8.01
2022-12-09T02:00:13.765Z,8.01
2022-12-09T02:01:13.328Z,7.98
2022-12-09T02:02:13.633Z,7.99
2022-12-09T02:03:13.720Z,7.96
2022-12-09T02:04:13.592Z,7.99
2022-12-09T02:05:13.340Z,7.98
2022-12-09T02:06:13.462Z,7.98
2022-12-09T02:07:13.390Z,8.05
2022-12-09T02:08:13.221Z,8.05
2022-12-09T02:09:13.195Z,8.05
2022-12-09T02:10:13.147Z,8.11
2022-12-09T02:11:13.108Z,8.11
2022-12-09T02:12:13.194Z,8.01
2022-12-09T02:13:13.071Z,8.06
2022-12-09T02:14:13.045Z,8.05
2022-12-09T02:15:13.037Z,8.05
2022-12-09T02:16:13.067Z,8.06
2022-12-09T02:17:13.171Z,8.09
2022-12-09T02:18:13.169Z,8.09
2022-12-09T02:19:13.149Z,8.13
2022-12-09T02:20:13.430Z,8.13
2022-12-09T02:21:13.111Z,8.05
2022-12-09T02:22:13.168Z,8.05
2022-12-09T02:23:12.969Z,8.16
2022-12-09T02:24:12.995Z,8.03
2022-12-09T02:25:12.828Z,8.06
2022-12-09T02:26:13.105Z,8.06
2022-12-09T02:27:12.840Z,8.06
2022-12-09T02:28:12.949Z,8.02
2022-12-09T02:29:13.064Z,8.13
2022-12-09T02:30:13.214Z,8.11
2022-12-09T02:31:12.788Z,8.14
2022-12-09T02:32:13.018Z,8.08
2022-12-09T02:33:12.746Z,8.13
2022-12-09T02:34:12.882Z,8.11
2022-12-09T02:35:12.628Z,8.14
2022-12-09T02:36:12.939Z,8.18
2022-12-09T02:37:12.623Z,8.23
2022-12-09T02:38:12.567Z,8.17
2022-12-09T02:39:12.863Z,8.21
2022-12-09T02:40:13.120Z,8.27
2022-12-09T02:41:12.510Z,8.20
2022-12-09T02:42:12.484Z,8.21
2022-12-09T02:43:12.744Z,8.24
2022-12-09T02:44:12.497Z,8.18
2022-12-09T02:45:12.436Z,8.23
2022-12-09T02:46:12.614Z,8.08
2022-12-09T02:47:12.640Z,8.14
2022-12-09T02:48:12.786Z,8.09
2022-12-09T02:49:12.357Z,8.11
2022-12-09T02:50:13.222Z,8.17
2022-12-09T02:51:12.414Z,8.17
2022-12-09T02:52:12.665Z,8.13
2022-12-09T02:53:12.270Z,8.08
2022-12-09T02:54:12.524Z,8.14
2022-12-09T02:55:12.285Z,8.14
2022-12-09T02:56:12.216Z,8.11
2022-12-09T02:57:12.330Z,8.11
2022-12-09T02:58:12.461Z,8.14
2022-12-09T02:59:12.282Z,8.16
2022-12-09T03:00:12.966Z,8.11
2022-12-09T03:01:12.225Z,8.02
2022-12-09T03:02:12.476Z,8.11
2022-12-09T03:03:12.386Z,8.13
2022-12-09T03:04:12.129Z,8.08
2022-12-09T03:05:12.037Z,8.14
2022-12-09T03:06:12.006Z,8.13
2022-12-09T03:07:12.310Z,8.06
2022-12-09T03:08:11.996Z,8.08
2022-12-09T03:09:12.132Z,8.08
2022-12-09T03:10:12.134Z,8.08
2022-12-09T03:11:12.040Z,8.06
2022-12-09T03:12:12.260Z,8.02
2022-12-09T03:13:11.909Z,7.98
2022-12-09T03:14:11.954Z,8.01
2022-12-09T03:15:11.916Z,7.96
2022-12-09T03:16:11.832Z,7.95
2022-12-09T03:17:12.135Z,7.87
2022-12-09T03:18:11.932Z,7.91
2022-12-09T03:19:11.749Z,7.74
2022-12-09T03:20:12.673Z,7.77
2022-12-09T03:21:11.989Z,7.72
2022-12-09T03:22:11.701Z,7.67
2022-12-09T03:23:11.666Z,7.61
2022-12-09T03:24:11.651Z,7.51
2022-12-09T03:25:11.646Z,7.43
2022-12-09T03:26:11.604Z,7.43
2022-12-09T03:27:11.650Z,7.29
2022-12-09T03:28:11.598Z,7.25
2022-12-09T03:29:11.565Z,7.21
2022-12-09T03:30:12.175Z,7.03
2022-12-09T03:31:11.736Z,7.07
2022-12-09T03:32:11.817Z,7.05
2022-12-09T03:33:11.634Z,7.00
2022-12-09T03:34:11.534Z,6.90
2022-12-09T03:35:11.425Z,6.89
2022-12-09T03:36:11.409Z,6.95
2022-12-09T03:37:11.513Z,6.85
2022-12-09T03:38:11.451Z,6.87
2022-12-09T03:39:11.344Z,6.86
2022-12-09T03:40:14.057Z,6.83
2022-12-09T03:41:11.438Z,6.82
2022-12-09T03:42:11.280Z,6.86
2022-12-09T03:43:11.547Z,6.75
2022-12-09T03:44:11.379Z,6.75
2022-12-09T03:45:11.481Z,6.72
2022-12-09T03:46:11.586Z,6.67
2022-12-09T03:47:11.451Z,6.77
2022-12-09T03:48:11.529Z,6.78
2022-12-09T03:49:11.140Z,6.77
2022-12-09T03:50:11.769Z,6.72
2022-12-09T03:51:11.163Z,6.70
2022-12-09T03:52:11.289Z,6.65
2022-12-09T03:53:11.076Z,6.60
2022-12-09T03:54:11.142Z,6.65
2022-12-09T03:55:11.289Z,6.64
2022-12-09T03:56:10.998Z,6.60
2022-12-09T03:57:15.468Z,6.62
2022-12-09T03:58:10.955Z,6.56
2022-12-09T03:59:11.273Z,6.54
2022-12-09T04:00:11.212Z,6.57
2022-12-09T04:01:10.926Z,6.53
2022-12-09T04:02:11.025Z,6.54
2022-12-09T04:03:10.971Z,6.50
2022-12-09T04:04:11.022Z,6.49
2022-12-09T04:05:10.922Z,6.46
2022-12-09T04:06:10.829Z,6.49
2022-12-09T04:07:11.056Z,6.49
2022-12-09T04:08:10.802Z,6.36
2022-12-09T04:09:10.794Z,6.38
2022-12-09T04:10:11.157Z,6.44
2022-12-09T04:11:10.687Z,6.41
2022-12-09T04:12:11.035Z,6.39
2022-12-09T04:13:10.633Z,6.38
2022-12-09T04:14:15.276Z,6.34
2022-12-09T04:15:10.596Z,6.34
2022-12-09T04:16:10.837Z,6.31
2022-12-09T04:17:10.702Z,6.35
2022-12-09T04:18:10.777Z,6.29
2022-12-09T04:19:10.906Z,6.31
2022-12-09T04:20:10.802Z,6.25
2022-12-09T04:21:10.531Z,6.28
2022-12-09T04:22:10.600Z,6.32
2022-12-09T04:23:10.609Z,6.25
2022-12-09T04:24:10.763Z,6.31
2022-12-09T04:25:10.444Z,6.25
2022-12-09T04:26:10.517Z,6.28
2022-12-09T04:27:10.572Z,6.16
2022-12-09T04:28:10.325Z,6.17
2022-12-09T04:29:10.642Z,6.12
2022-12-09T04:30:10.531Z,6.15
2022-12-09T04:31:10.367Z,6.16
2022-12-09T04:32:10.359Z,6.07
2022-12-09T04:33:10.219Z,6.12
2022-12-09T04:34:10.767Z,6.16
2022-12-09T04:35:10.181Z,6.15
2022-12-09T04:36:10.337Z,6.05
2022-12-09T04:37:10.577Z,6.06
2022-12-09T04:38:10.202Z,6.05
2022-12-09T04:39:10.145Z,6.07
2022-12-09T04:40:10.378Z,5.99
2022-12-09T04:41:10.414Z,6.01
2022-12-09T04:42:10.429Z,6.12
2022-12-09T04:43:10.116Z,6.06
2022-12-09T04:44:10.162Z,6.09
2022-12-09T04:45:09.990Z,6.12
2022-12-09T04:46:10.315Z,6.20
2022-12-09T04:47:09.986Z,6.29
2022-12-09T04:48:10.102Z,6.25
2022-12-09T04:49:10.153Z,6.26
2022-12-09T04:50:10.404Z,6.25
2022-12-09T04:51:09.850Z,6.25
2022-12-09T04:52:09.818Z,6.39
2022-12-09T04:53:09.802Z,6.44
2022-12-09T04:54:09.798Z,6.46
2022-12-09T04:55:09.930Z,6.53
2022-12-09T04:56:10.051Z,6.62
2022-12-09T04:57:09.837Z,6.59
2022-12-09T04:58:09.702Z,6.68
2022-12-09T04:59:09.674Z,6.77
2022-12-09T05:00:10.317Z,6.71
2022-12-09T05:01:09.793Z,6.78
2022-12-09T05:02:09.887Z,6.74
2022-12-09T05:03:09.977Z,6.75
2022-12-09T05:04:09.779Z,6.85
2022-12-09T05:05:09.855Z,6.86
2022-12-09T05:06:09.743Z,6.90
2022-12-09T05:07:09.704Z,6.89
2022-12-09T05:08:09.793Z,6.90
2022-12-09T05:09:09.953Z,6.85
2022-12-09T05:10:09.902Z,7.00
2022-12-09T05:11:09.920Z,6.95
2022-12-09T05:12:09.436Z,7.05
2022-12-09T05:13:09.401Z,6.95
2022-12-09T05:14:09.619Z,7.01
2022-12-09T05:15:09.709Z,7.04
2022-12-09T05:16:15.453Z,7.04
2022-12-09T05:17:09.523Z,7.04
2022-12-09T05:18:09.599Z,7.13
2022-12-09T05:19:09.571Z,7.08
2022-12-09T05:20:09.650Z,7.22
2022-12-09T05:21:09.267Z,7.13
2022-12-09T05:22:09.197Z,7.15
2022-12-09T05:23:09.856Z,7.25
2022-12-09T05:24:09.449Z,7.25
2022-12-09T05:25:09.196Z,7.25
2022-12-09T05:26:09.423Z,7.26
2022-12-09T05:27:09.293Z,7.31
2022-12-09T05:28:09.113Z,7.26
2022-12-09T05:29:09.344Z,7.32
2022-12-09T05:30:09.976Z,7.31
2022-12-09T05:31:09.284Z,7.37
2022-12-09T05:32:09.140Z,7.31
2022-12-09T05:33:09.289Z,7.33
2022-12-09T05:34:09.262Z,7.43
2022-12-09T05:35:09.247Z,7.43
2022-12-09T05:36:08.918Z,7.41
2022-12-09T05:37:08.981Z,7.50
2022-12-09T05:38:09.061Z,7.48
2022-12-09T05:39:08.914Z,7.43
2022-12-09T05:40:09.392Z,7.46
2022-12-09T05:41:09.181Z,7.51
2022-12-09T05:42:08.830Z,7.59
2022-12-09T05:43:08.860Z,7.53
2022-12-09T05:44:08.912Z,7.55
2022-12-09T05:45:09.007Z,7.53
2022-12-09T05:46:08.838Z,7.61
2022-12-09T05:47:08.769Z,7.61
2022-12-09T05:48:09.177Z,7.62
2022-12-09T05:49:08.892Z,7.69
2022-12-09T05:50:09.160Z,7.62
2022-12-09T05:51:08.708Z,7.74
2022-12-09T05:52:08.857Z,7.59
2022-12-09T05:53:08.581Z,7.75
2022-12-09T05:54:08.944Z,7.66
2022-12-09T05:55:08.844Z,7.67
2022-12-09T05:56:08.601Z,7.67
2022-12-09T05:57:08.722Z,7.75
2022-12-09T05:58:08.623Z,7.67
2022-12-09T05:59:08.773Z,7.75
2022-12-09T06:00:09.291Z,7.78
2022-12-09T06:01:08.705Z,7.77
2022-12-09T06:02:10.242Z,7.80
2022-12-09T06:03:08.790Z,7.78
2022-12-09T06:04:08.607Z,7.84
2022-12-09T06:05:08.687Z,7.83
2022-12-09T06:06:08.559Z,7.83
2022-12-09T06:07:08.688Z,7.84
2022-12-09T06:08:08.554Z,7.93
2022-12-09T06:09:08.652Z,7.96
2022-12-09T06:10:08.593Z,7.90
2022-12-09T06:11:08.618Z,7.93
2022-12-09T06:12:08.415Z,7.98
2022-12-09T06:13:08.659Z,7.96
2022-12-09T06:14:08.350Z,7.99
2022-12-09T06:15:10.573Z,8.06
2022-12-09T06:16:08.487Z,8.11
2022-12-09T06:17:08.252Z,8.05
2022-12-09T06:18:08.251Z,8.06
2022-12-09T06:19:08.190Z,8.11
2022-12-09T06:20:08.457Z,8.06
2022-12-09T06:21:08.135Z,8.14
2022-12-09T06:22:08.389Z,8.06
2022-12-09T06:23:08.057Z,8.09
2022-12-09T06:24:07.990Z,8.11
2022-12-09T06:25:08.307Z,8.18
2022-12-09T06:26:08.147Z,8.11
2022-12-09T06:27:08.117Z,8.08
2022-12-09T06:28:08.063Z,8.13
2022-12-09T06:29:08.181Z,8.13
2022-12-09T06:30:07.860Z,8.17
2022-12-09T06:31:08.081Z,8.11
2022-12-09T06:32:07.867Z,8.17
2022-12-09T06:33:29.171Z,8.14
2022-12-09T06:34:07.903Z,8.09
2022-12-09T06:35:08.494Z,8.03
2022-12-09T06:36:07.912Z,8.02
2022-12-09T06:37:08.075Z,8.06
2022-12-09T06:38:08.101Z,8.08
2022-12-09T06:39:10.518Z,8.06
2022-12-09T06:40:07.943Z,8.06
2022-12-09T06:41:07.621Z,8.08
2022-12-09T06:42:07.901Z,8.06
2022-12-09T06:43:07.611Z,8.14
2022-12-09T06:44:07.549Z,8.02
2022-12-09T06:45:08.081Z,8.05
2022-12-09T06:46:07.721Z,8.03
2022-12-09T06:47:07.643Z,8.16
2022-12-09T06:48:07.777Z,8.11
2022-12-09T06:49:07.974Z,8.01
2022-12-09T06:50:08.116Z,8.09
2022-12-09T06:51:07.521Z,8.09
2022-12-09T06:52:07.493Z,8.13
2022-12-09T06:53:07.366Z,8.13
2022-12-09T06:54:07.793Z,8.13
2022-12-09T06:55:07.688Z,8.09
2022-12-09T06:56:11.759Z,8.06
2022-12-09T06:57:07.328Z,8.08
2022-12-09T06:58:07.708Z,7.95
2022-12-09T06:59:07.262Z,7.95
2022-12-09T07:00:07.245Z,7.84
2022-12-09T07:01:07.273Z,7.77
2022-12-09T07:02:07.277Z,7.70
2022-12-09T07:03:07.611Z,7.70
2022-12-09T07:04:07.582Z,7.67
2022-12-09T07:05:08.218Z,7.70
2022-12-09T07:06:07.230Z,7.61
2022-12-09T07:07:07.319Z,7.51
2022-12-09T07:08:07.662Z,7.48
2022-12-09T07:09:07.278Z,7.50
2022-12-09T07:10:07.713Z,7.46
2022-12-09T07:11:07.411Z,7.46
2022-12-09T07:12:07.351Z,7.47
2022-12-09T07:13:07.292Z,7.44
2022-12-09T07:14:07.432Z,7.40
2022-12-09T07:15:07.667Z,7.29
2022-12-09T07:16:07.087Z,7.25
2022-12-09T07:17:07.034Z,7.23
2022-12-09T07:18:06.944Z,7.26
2022-12-09T07:19:07.058Z,7.21
2022-12-09T07:20:07.790Z,7.18
2022-12-09T07:21:06.832Z,7.10
2022-12-09T07:22:06.882Z,7.14
2022-12-09T07:23:07.042Z,7.10
2022-12-09T07:24:07.110Z,7.05
2022-12-09T07:25:07.670Z,7.04
2022-12-09T07:26:06.807Z,7.01
2022-12-09T07:27:10.764Z,7.04
2022-12-09T07:28:06.755Z,7.08
2022-12-09T07:29:06.730Z,7.01
2022-12-09T07:30:07.008Z,7.03
2022-12-09T07:31:06.631Z,7.05
2022-12-09T07:32:07.046Z,7.13
2022-12-09T07:33:07.100Z,7.05
2022-12-09T07:34:06.838Z,7.04
2022-12-09T07:35:07.287Z,7.05
2022-12-09T07:36:06.533Z,7.03
2022-12-09T07:37:06.528Z,7.19
2022-12-09T07:38:06.829Z,7.15
2022-12-09T07:39:06.916Z,7.19
2022-12-09T07:40:06.726Z,7.18
2022-12-09T07:41:06.483Z,7.18
2022-12-09T07:42:06.590Z,7.19
2022-12-09T07:43:06.400Z,7.29
2022-12-09T07:44:06.489Z,7.25
2022-12-09T07:45:07.106Z,7.23
2022-12-09T07:46:06.771Z,7.25
2022-12-09T07:47:06.441Z,7.23
2022-12-09T07:48:06.447Z,7.28
2022-12-09T07:49:06.457Z,7.23
2022-12-09T07:50:07.061Z,7.19
2022-12-09T07:51:06.172Z,7.18
2022-12-09T07:52:06.402Z,7.22
2022-12-09T07:53:06.244Z,7.21
2022-12-09T07:54:06.268Z,7.31
2022-12-09T07:55:06.873Z,7.23
2022-12-09T07:56:06.163Z,7.25
2022-12-09T07:57:06.186Z,7.23
2022-12-09T07:58:06.434Z,7.31
2022-12-09T07:59:06.476Z,7.22
2022-12-09T08:00:06.273Z,7.21
2022-12-09T08:01:06.302Z,7.19
2022-12-09T08:02:06.870Z,7.23
2022-12-09T08:03:06.446Z,7.25
2022-12-09T08:04:06.232Z,7.19
2022-12-09T08:05:06.820Z,7.22
2022-12-09T08:06:06.154Z,7.25
2022-12-09T08:07:06.373Z,7.22
2022-12-09T08:08:06.449Z,7.25
2022-12-09T08:09:06.100Z,7.25
2022-12-09T08:10:06.094Z,7.33
2022-12-09T08:11:05.968Z,7.44
2022-12-09T08:12:06.157Z,7.43
2022-12-09T08:13:06.112Z,7.40
2022-12-09T08:14:11.021Z,7.47
2022-12-09T08:15:06.539Z,7.59
2022-12-09T08:16:06.066Z,7.61
2022-12-09T08:17:05.935Z,7.66
2022-12-09T08:18:05.731Z,7.67
2022-12-09T08:19:06.129Z,7.59
2022-12-09T08:20:06.529Z,7.74
2022-12-09T08:21:06.011Z,7.64
2022-12-09T08:22:05.666Z,7.83
2022-12-09T08:23:05.673Z,7.93
2022-12-09T08:24:05.952Z,8.01
2022-12-09T08:25:06.335Z,8.02
2022-12-09T08:26:05.672Z,8.09
2022-12-09T08:27:06.010Z,8.06
2022-12-09T08:28:05.599Z,8.11
2022-12-09T08:29:05.465Z,8.18
2022-12-09T08:30:05.902Z,8.41
2022-12-09T08:31:05.589Z,8.56
2022-12-09T08:32:05.491Z,8.64
2022-12-09T08:33:05.765Z,8.75
2022-12-09T08:34:05.482Z,8.75
2022-12-09T08:35:05.518Z,8.97
2022-12-09T08:36:05.264Z,9.00
2022-12-09T08:37:05.629Z,9.12
2022-12-09T08:38:05.452Z,9.16
2022-12-09T08:39:05.478Z,9.30
2022-12-09T08:40:05.804Z,9.30
2022-12-09T08:41:05.564Z,9.37
2022-12-09T08:42:05.546Z,9.48
2022-12-09T08:43:05.162Z,9.48
2022-12-09T08:44:05.532Z,9.52
2022-12-09T08:45:05.492Z,9.59
2022-12-09T08:46:05.458Z,9.62
2022-12-09T08:47:05.189Z,9.69
2022-12-09T08:48:05.469Z,9.76
2022-12-09T08:49:05.378Z,9.76
2022-12-09T08:50:05.209Z,9.74
2022-12-09T08:51:05.142Z,9.87
2022-12-09T08:52:05.109Z,9.90
2022-12-09T08:53:05.309Z,10.02
2022-12-09T08:54:05.036Z,10.02
2022-12-09T08:55:05.110Z,10.05
2022-12-09T08:56:05.203Z,10.00
2022-12-09T08:57:05.180Z,10.13
2022-12-09T08:58:05.039Z,10.15
2022-12-09T08:59:05.003Z,10.03
2022-12-09T09:00:05.170Z,10.10
2022-12-09T09:01:04.999Z,10.17
2022-12-09T09:02:04.988Z,10.03
2022-12-09T09:03:04.965Z,10.13
2022-12-09T09:04:05.123Z,9.95
2022-12-09T09:05:05.278Z,9.91
2022-12-09T09:06:09.672Z,9.90
2022-12-09T09:07:04.883Z,10.03
2022-12-09T09:08:04.962Z,10.00
2022-12-09T09:09:04.907Z,10.03
2022-12-09T09:10:05.145Z,10.06
2022-12-09T09:11:04.785Z,9.90
2022-12-09T09:12:04.790Z,9.99
2022-12-09T09:13:04.926Z,9.90
2022-12-09T09:14:04.950Z,9.84
2022-12-09T09:15:04.611Z,9.84
2022-12-09T09:16:04.754Z,9.81
2022-12-09T09:17:04.756Z,9.80
2022-12-09T09:18:04.693Z,9.77
2022-12-09T09:19:04.727Z,9.85
2022-12-09T09:20:05.025Z,9.81
2022-12-09T09:21:04.387Z,9.77
2022-12-09T09:22:04.411Z,9.81
2022-12-09T09:23:04.504Z,9.74
2022-12-09T09:24:04.701Z,9.76
2022-12-09T09:25:05.017Z,9.74
2022-12-09T09:26:04.856Z,9.85
2022-12-09T09:27:04.400Z,9.91
2022-12-09T09:28:04.385Z,9.99
2022-12-09T09:29:04.287Z,10.06
2022-12-09T09:30:04.899Z,10.25
2022-12-09T09:31:04.479Z,10.42
2022-12-09T09:32:04.220Z,10.43
2022-12-09T09:33:04.287Z,10.67
2022-12-09T09:34:04.745Z,10.80
2022-12-09T09:35:04.340Z,10.87
2022-12-09T09:36:09.718Z,11.04
2022-12-09T09:37:04.282Z,11.08
2022-12-09T09:38:04.436Z,11.22
2022-12-09T09:39:04.472Z,11.37
2022-12-09T09:40:04.130Z,11.38
2022-12-09T09:41:04.362Z,11.49
2022-12-09T09:42:08.191Z,11.52
2022-12-09T09:43:04.166Z,11.53
2022-12-09T09:44:03.993Z,11.73
2022-12-09T09:45:04.074Z,12.08
2022-12-09T09:46:04.412Z,12.29
2022-12-09T09:47:04.468Z,12.51
2022-12-09T09:48:04.060Z,12.88
2022-12-09T09:49:03.974Z,13.24
2022-12-09T09:50:04.590Z,13.42
2022-12-09T09:51:03.859Z,13.55
2022-12-09T09:52:03.898Z,13.62
2022-12-09T09:53:03.832Z,13.75
2022-12-09T09:54:08.423Z,13.71
2022-12-09T09:55:04.086Z,13.76
2022-12-09T09:56:04.195Z,13.83
2022-12-09T09:57:03.757Z,13.83
2022-12-09T09:58:04.047Z,13.98
2022-12-09T09:59:03.864Z,14.15
2022-12-09T10:00:08.567Z,14.19
2022-12-09T10:01:04.220Z,14.19
2022-12-09T10:02:04.054Z,14.25
2022-12-09T10:03:04.057Z,14.28
2022-12-09T10:04:04.511Z,14.18
2022-12-09T10:05:04.287Z,14.18
2022-12-09T10:06:04.018Z,14.20
2022-12-09T10:07:07.421Z,14.07
2022-12-09T10:08:04.053Z,14.20
2022-12-09T10:09:03.794Z,14.36
2022-12-09T10:10:04.146Z,14.41
2022-12-09T10:11:03.854Z,14.53
2022-12-09T10:12:04.233Z,14.61
2022-12-09T10:13:08.106Z,14.74
2022-12-09T10:14:03.975Z,14.86
2022-12-09T10:15:03.518Z,14.96
2022-12-09T10:16:03.824Z,15.07
2022-12-09T10:17:03.558Z,15.10
2022-12-09T10:18:03.698Z,15.19
2022-12-09T10:19:07.976Z,15.27
2022-12-09T10:20:03.963Z,15.45
2022-12-09T10:21:03.513Z,15.87
2022-12-09T10:22:03.411Z,16.13
2022-12-09T10:23:03.512Z,16.32
2022-12-09T10:24:03.381Z,16.24
2022-12-09T10:25:03.622Z,16.58
2022-12-09T10:26:03.377Z,16.98
2022-12-09T10:27:03.652Z,17.23
2022-12-09T10:28:03.215Z,17.41
2022-12-09T10:29:03.253Z,17.72
2022-12-09T10:30:03.833Z,17.78
2022-12-09T10:31:03.343Z,17.52
2022-12-09T10:32:03.481Z,17.17
2022-12-09T10:33:03.194Z,17.22
2022-12-09T10:34:03.724Z,17.02
2022-12-09T10:35:03.500Z,17.28
2022-12-09T10:36:03.515Z,17.68
2022-12-09T10:37:03.193Z,17.54
2022-12-09T10:38:11.870Z,17.47
2022-12-09T10:40:09.212Z,16.82
2022-12-09T10:41:08.651Z,16.66
2022-12-09T10:43:14.048Z,16.21
2022-12-09T10:44:14.201Z,16.05
2022-12-09T10:46:21.019Z,15.98
2022-12-09T10:47:19.417Z,16.34
2022-12-09T10:49:14.199Z,16.21
2022-12-09T10:50:13.997Z,16.36
2022-12-09T10:52:19.630Z,15.94
2022-12-09T10:53:19.326Z,16.50
2022-12-09T10:55:24.894Z,17.16
2022-12-09T10:56:24.543Z,17.22
2022-12-09T10:58:29.042Z,17.86
2022-12-09T10:59:29.226Z,17.87
2022-12-09T11:01:33.800Z,17.88
2022-12-09T11:02:33.911Z,17.76
2022-12-09T11:04:39.479Z,17.66
2022-12-09T11:05:39.437Z,17.50
2022-12-09T11:07:44.521Z,17.19
2022-12-09T11:08:44.508Z,16.99
2022-12-09T11:09:44.771Z,17.01
2022-12-09T11:10:44.946Z,16.95
2022-12-09T11:11:44.633Z,16.95
2022-12-09T11:12:44.369Z,16.91
2022-12-09T11:13:44.304Z,16.84
2022-12-09T11:14:44.189Z,16.84
2022-12-09T11:15:44.986Z,16.86
2022-12-09T11:16:44.272Z,16.77
2022-12-09T11:17:44.681Z,16.68
2022-12-09T11:18:44.457Z,16.59
2022-12-09T11:19:44.528Z,16.41
2022-12-09T11:20:44.168Z,16.22
2022-12-09T11:21:44.605Z,16.00
2022-12-09T11:22:44.145Z,15.85
2022-12-09T11:23:44.164Z,15.72
2022-12-09T11:24:44.181Z,15.55
2022-12-09T11:25:44.152Z,15.47
2022-12-09T11:26:43.990Z,15.27
2022-12-09T11:27:44.124Z,15.18
2022-12-09T11:28:44.030Z,15.04
2022-12-09T11:29:44.255Z,14.82
2022-12-09T11:31:04.875Z,14.78
2022-12-09T11:31:44.532Z,14.73
2022-12-09T11:32:44.044Z,14.68
2022-12-09T11:33:44.156Z,14.48
2022-12-09T11:34:44.019Z,14.45
2022-12-09T11:35:44.313Z,14.41
2022-12-09T11:36:44.323Z,14.23
2022-12-09T11:37:43.802Z,14.23
2022-12-09T11:38:43.780Z,14.22
2022-12-09T11:39:43.765Z,14.15
2022-12-09T11:40:43.750Z,14.22
2022-12-09T11:41:43.749Z,14.30
2022-12-09T11:42:43.722Z,14.30
2022-12-09T11:43:43.696Z,14.23
2022-12-09T11:44:43.684Z,14.30
2022-12-09T11:45:43.666Z,14.26
2022-12-09T11:46:43.679Z,14.45
2022-12-09T11:48:22.936Z,14.55
2022-12-09T11:48:44.124Z,14.51
2022-12-09T11:49:43.609Z,14.49
2022-12-09T11:50:43.738Z,14.48
2022-12-09T11:51:43.561Z,14.33
2022-12-09T11:52:43.574Z,14.34
2022-12-09T11:53:43.528Z,14.33
2022-12-09T11:54:43.515Z,14.30
2022-12-09T11:55:43.496Z,14.12
2022-12-09T11:56:43.481Z,14.37
2022-12-09T11:57:43.457Z,15.08
2022-12-09T11:58:43.446Z,15.08
2022-12-09T11:59:43.426Z,15.08
2022-12-09T12:00:43.522Z,15.14
2022-12-09T12:01:43.450Z,15.33
2022-12-09T12:02:43.450Z,15.81
2022-12-09T12:03:43.361Z,15.88
2022-12-09T12:04:43.347Z,15.87
2022-12-09T12:05:43.384Z,15.91
2022-12-09T12:06:43.314Z,15.99
2022-12-09T12:07:43.347Z,16.55
2022-12-09T12:08:43.354Z,16.79
2022-12-09T12:09:43.269Z,16.87
2022-12-09T12:10:43.247Z,16.82
2022-12-09T12:11:43.232Z,16.95
2022-12-09T12:12:43.218Z,17.31
2022-12-09T12:13:43.208Z,17.44
2022-12-09T12:14:43.204Z,17.34
2022-12-09T12:15:43.186Z,17.20
2022-12-09T12:16:43.154Z,17.28
2022-12-09T12:17:43.166Z,17.05
2022-12-09T12:18:43.125Z,16.98
2022-12-09T12:19:43.105Z,16.79
2022-12-09T12:20:43.095Z,16.61
2022-12-09T12:21:43.074Z,16.61
2022-12-09T12:22:43.059Z,16.55
2022-12-09T12:23:43.041Z,16.41
2022-12-09T12:24:43.032Z,16.54
2022-12-09T12:25:43.010Z,16.40
2022-12-09T12:26:43.002Z,16.34
2022-12-09T12:27:42.979Z,16.21
2022-12-09T12:28:44.956Z,16.09
2022-12-09T12:29:42.948Z,15.99
2022-12-09T12:30:42.945Z,15.94
2022-12-09T12:31:42.970Z,15.85
2022-12-09T12:32:42.903Z,15.72
2022-12-09T12:34:42.886Z,15.78
2022-12-09T12:35:42.869Z,15.65
2022-12-09T12:36:42.841Z,15.54
2022-12-09T12:37:42.826Z,15.44
2022-12-09T12:38:42.804Z,15.29
2022-12-09T12:39:42.794Z,15.05
2022-12-09T12:40:42.783Z,15.02
2022-12-09T12:41:42.764Z,14.82
2022-12-09T12:42:42.743Z,14.74
2022-12-09T12:43:42.727Z,14.67
2022-12-09T12:44:42.708Z,14.70
2022-12-09T12:45:42.745Z,14.59
2022-12-09T12:46:42.677Z,14.55
2022-12-09T12:47:42.656Z,14.51
2022-12-09T12:48:42.673Z,14.40
2022-12-09T12:49:42.626Z,14.34
2022-12-09T12:50:42.746Z,14.25
2022-12-09T12:51:42.605Z,14.20
2022-12-09T12:52:58.003Z,14.18
2022-12-09T12:53:42.558Z,14.19
2022-12-09T12:54:42.543Z,14.12
2022-12-09T12:55:42.533Z,14.08
2022-12-09T12:56:42.508Z,13.98
2022-12-09T12:57:42.496Z,14.00
2022-12-09T12:58:42.472Z,13.93
2022-12-09T12:59:42.459Z,13.94
2022-12-09T13:00:42.442Z,13.95
2022-12-09T13:01:42.428Z,13.87
2022-12-09T13:02:42.436Z,13.85
2022-12-09T13:03:42.390Z,13.89
2022-12-09T13:04:42.375Z,13.86
2022-12-09T13:05:42.362Z,13.80
2022-12-09T13:06:42.400Z,13.83
2022-12-09T13:07:42.355Z,13.86
2022-12-09T13:08:42.305Z,13.79
2022-12-09T13:09:42.289Z,13.75
2022-12-09T13:10:42.272Z,13.73
2022-12-09T13:11:42.259Z,13.73
2022-12-09T13:12:42.238Z,13.70
2022-12-09T13:13:42.222Z,13.75
2022-12-09T13:14:43.034Z,13.78
2022-12-09T13:15:42.187Z,13.65
2022-12-09T13:16:42.353Z,13.61
2022-12-09T13:17:42.163Z,13.52
2022-12-09T13:18:42.133Z,13.52
2022-12-09T13:19:42.123Z,13.45
2022-12-09T13:20:42.124Z,13.31
2022-12-09T13:21:42.085Z,13.36